sensor_id;sensor_type;location;lat;lon;timestamp;P1;durP1;ratioP1;P2;durP2;ratioP2
63218;SDS011;49320;52.512;13.448;2023-05-10T00:00:20;4.53;;;3.15;;
63218;SDS011;49320;52.512;13.448;2023-05-10T00:02:48;4.18;;;3.20;;
63218;SDS011;49320;52.512;13.448;2023-05-10T00:05:16;4.82;;;3.65;;
63218;SDS011;49320;52.512;13.448;2023-05-10T00:07:43;4.82;;;3.58;;
63218;SDS011;49320;52.512;13.448;2023-05-10T00:10:11;3.80;;;3.25;;
63218;SDS011;49320;52.512;13.448;2023-05-10T00:12:38;6.53;;;3.38;;
63218;SDS011;49320;52.512;13.448;2023-05-10T00:15:06;5.50;;;3.83;;
63218;SDS011;49320;52.512;13.448;2023-05-10T00:17:34;5.68;;;3.80;;
63218;SDS011;49320;52.512;13.448;2023-05-10T00:20:01;4.10;;;3.58;;
63218;SDS011;49320;52.512;13.448;2023-05-10T00:22:28;5.03;;;3.55;;
63218;SDS011;49320;52.512;13.448;2023-05-10T00:24:54;5.43;;;3.53;;
63218;SDS011;49320;52.512;13.448;2023-05-10T00:27:21;6.85;;;4.32;;
63218;SDS011;49320;52.512;13.448;2023-05-10T00:29:48;5.15;;;3.58;;
63218;SDS011;49320;52.512;13.448;2023-05-10T00:32:15;4.68;;;4.05;;
63218;SDS011;49320;52.512;13.448;2023-05-10T00:34:42;5.72;;;3.63;;
63218;SDS011;49320;52.512;13.448;2023-05-10T00:37:09;6.65;;;3.47;;
63218;SDS011;49320;52.512;13.448;2023-05-10T00:39:36;5.53;;;3.70;;
63218;SDS011;49320;52.512;13.448;2023-05-10T00:42:02;5.57;;;4.00;;
63218;SDS011;49320;52.512;13.448;2023-05-10T00:44:30;5.13;;;3.80;;
63218;SDS011;49320;52.512;13.448;2023-05-10T00:46:57;3.95;;;3.53;;
63218;SDS011;49320;52.512;13.448;2023-05-10T00:49:25;5.07;;;3.65;;
63218;SDS011;49320;52.512;13.448;2023-05-10T00:51:52;7.28;;;3.70;;
63218;SDS011;49320;52.512;13.448;2023-05-10T00:54:19;6.75;;;3.60;;
63218;SDS011;49320;52.512;13.448;2023-05-10T00:56:46;9.23;;;4.05;;
63218;SDS011;49320;52.512;13.448;2023-05-10T00:59:15;4.25;;;3.78;;
63218;SDS011;49320;52.512;13.448;2023-05-10T01:01:44;4.30;;;3.60;;
63218;SDS011;49320;52.512;13.448;2023-05-10T01:04:12;5.15;;;3.70;;
63218;SDS011;49320;52.512;13.448;2023-05-10T01:06:40;7.45;;;3.67;;
63218;SDS011;49320;52.512;13.448;2023-05-10T01:09:08;6.03;;;3.80;;
63218;SDS011;49320;52.512;13.448;2023-05-10T01:11:37;4.10;;;3.13;;
63218;SDS011;49320;52.512;13.448;2023-05-10T01:14:05;4.32;;;3.45;;
63218;SDS011;49320;52.512;13.448;2023-05-10T01:16:39;5.85;;;4.07;;
63218;SDS011;49320;52.512;13.448;2023-05-10T01:19:12;3.90;;;3.05;;
63218;SDS011;49320;52.512;13.448;2023-05-10T01:21:51;4.20;;;3.80;;
63218;SDS011;49320;52.512;13.448;2023-05-10T01:34:46;5.45;;;3.47;;
63218;SDS011;49320;52.512;13.448;2023-05-10T01:37:28;5.15;;;3.25;;
63218;SDS011;49320;52.512;13.448;2023-05-10T01:40:32;6.68;;;3.92;;
63218;SDS011;49320;52.512;13.448;2023-05-10T01:43:28;5.30;;;3.50;;
63218;SDS011;49320;52.512;13.448;2023-05-10T01:46:09;5.18;;;3.60;;
63218;SDS011;49320;52.512;13.448;2023-05-10T01:48:50;3.97;;;3.33;;
63218;SDS011;49320;52.512;13.448;2023-05-10T01:51:23;5.82;;;3.63;;
63218;SDS011;49320;52.512;13.448;2023-05-10T01:53:58;3.78;;;3.38;;
63218;SDS011;49320;52.512;13.448;2023-05-10T01:56:29;4.97;;;3.50;;
63218;SDS011;49320;52.512;13.448;2023-05-10T01:58:59;3.42;;;3.13;;
63218;SDS011;49320;52.512;13.448;2023-05-10T02:01:33;4.35;;;3.70;;
63218;SDS011;49320;52.512;13.448;2023-05-10T02:04:03;5.00;;;3.60;;
63218;SDS011;49320;52.512;13.448;2023-05-10T02:06:34;4.78;;;3.75;;
63218;SDS011;49320;52.512;13.448;2023-05-10T02:09:02;4.45;;;3.80;;
63218;SDS011;49320;52.512;13.448;2023-05-10T02:11:31;3.80;;;3.28;;
63218;SDS011;49320;52.512;13.448;2023-05-10T02:13:58;4.30;;;3.55;;
63218;SDS011;49320;52.512;13.448;2023-05-10T02:16:27;4.32;;;3.22;;
63218;SDS011;49320;52.512;13.448;2023-05-10T02:18:57;4.57;;;3.53;;
63218;SDS011;49320;52.512;13.448;2023-05-10T02:21:28;4.78;;;3.85;;
63218;SDS011;49320;52.512;13.448;2023-05-10T02:23:57;4.95;;;3.55;;
63218;SDS011;49320;52.512;13.448;2023-05-10T02:26:28;4.20;;;3.70;;
63218;SDS011;49320;52.512;13.448;2023-05-10T02:28:57;5.60;;;3.78;;
63218;SDS011;49320;52.512;13.448;2023-05-10T02:31:27;5.28;;;3.17;;
63218;SDS011;49320;52.512;13.448;2023-05-10T02:33:55;4.15;;;3.42;;
63218;SDS011;49320;52.512;13.448;2023-05-10T02:36:24;5.28;;;3.50;;
63218;SDS011;49320;52.512;13.448;2023-05-10T02:38:53;5.63;;;3.88;;
63218;SDS011;49320;52.512;13.448;2023-05-10T02:41:21;8.05;;;4.05;;
63218;SDS011;49320;52.512;13.448;2023-05-10T02:43:50;5.38;;;3.88;;
63218;SDS011;49320;52.512;13.448;2023-05-10T02:46:18;4.97;;;3.17;;
63218;SDS011;49320;52.512;13.448;2023-05-10T02:48:45;5.97;;;4.53;;
63218;SDS011;49320;52.512;13.448;2023-05-10T02:51:12;5.32;;;3.80;;
63218;SDS011;49320;52.512;13.448;2023-05-10T02:53:44;4.25;;;3.60;;
63218;SDS011;49320;52.512;13.448;2023-05-10T02:56:15;4.63;;;3.50;;
63218;SDS011;49320;52.512;13.448;2023-05-10T02:59:00;6.78;;;3.40;;
63218;SDS011;49320;52.512;13.448;2023-05-10T03:01:27;4.93;;;3.53;;
63218;SDS011;49320;52.512;13.448;2023-05-10T03:03:53;4.75;;;3.55;;
63218;SDS011;49320;52.512;13.448;2023-05-10T03:06:20;5.70;;;3.80;;
63218;SDS011;49320;52.512;13.448;2023-05-10T03:08:47;5.15;;;3.78;;
63218;SDS011;49320;52.512;13.448;2023-05-10T03:17:28;4.00;;;3.35;;
63218;SDS011;49320;52.512;13.448;2023-05-10T03:20:04;4.78;;;3.50;;
63218;SDS011;49320;52.512;13.448;2023-05-10T03:22:38;5.00;;;3.08;;
63218;SDS011;49320;52.512;13.448;2023-05-10T03:25:21;4.53;;;3.25;;
63218;SDS011;49320;52.512;13.448;2023-05-10T03:27:50;4.35;;;3.42;;
63218;SDS011;49320;52.512;13.448;2023-05-10T03:30:18;6.47;;;3.90;;
63218;SDS011;49320;52.512;13.448;2023-05-10T03:32:46;5.38;;;3.45;;
63218;SDS011;49320;52.512;13.448;2023-05-10T03:35:13;4.85;;;3.70;;
63218;SDS011;49320;52.512;13.448;2023-05-10T03:37:40;4.15;;;3.28;;
63218;SDS011;49320;52.512;13.448;2023-05-10T03:40:07;5.30;;;3.08;;
63218;SDS011;49320;52.512;13.448;2023-05-10T03:42:36;6.57;;;3.80;;
63218;SDS011;49320;52.512;13.448;2023-05-10T03:45:02;5.90;;;3.65;;
63218;SDS011;49320;52.512;13.448;2023-05-10T03:47:29;5.72;;;3.50;;
63218;SDS011;49320;52.512;13.448;2023-05-10T03:49:56;4.38;;;3.30;;
63218;SDS011;49320;52.512;13.448;2023-05-10T03:52:23;5.80;;;3.72;;
63218;SDS011;49320;52.512;13.448;2023-05-10T03:54:50;7.03;;;3.63;;
63218;SDS011;49320;52.512;13.448;2023-05-10T03:57:17;3.53;;;2.80;;
63218;SDS011;49320;52.512;13.448;2023-05-10T03:59:44;4.50;;;3.30;;
63218;SDS011;49320;52.512;13.448;2023-05-10T04:02:11;7.40;;;3.38;;
63218;SDS011;49320;52.512;13.448;2023-05-10T04:04:38;5.82;;;3.45;;
63218;SDS011;49320;52.512;13.448;2023-05-10T04:07:05;4.88;;;3.08;;
63218;SDS011;49320;52.512;13.448;2023-05-10T04:09:32;3.75;;;3.25;;
63218;SDS011;49320;52.512;13.448;2023-05-10T04:11:59;10.52;;;3.83;;
63218;SDS011;49320;52.512;13.448;2023-05-10T04:14:28;3.78;;;3.10;;
63218;SDS011;49320;52.512;13.448;2023-05-10T04:16:55;4.88;;;3.72;;
63218;SDS011;49320;52.512;13.448;2023-05-10T04:19:22;5.75;;;3.30;;
63218;SDS011;49320;52.512;13.448;2023-05-10T04:21:49;4.22;;;2.72;;
63218;SDS011;49320;52.512;13.448;2023-05-10T04:24:16;4.57;;;3.20;;
63218;SDS011;49320;52.512;13.448;2023-05-10T04:26:43;5.43;;;3.40;;
63218;SDS011;49320;52.512;13.448;2023-05-10T04:29:10;8.00;;;3.83;;
63218;SDS011;49320;52.512;13.448;2023-05-10T04:31:37;4.50;;;3.45;;
63218;SDS011;49320;52.512;13.448;2023-05-10T04:34:04;7.05;;;3.63;;
63218;SDS011;49320;52.512;13.448;2023-05-10T04:36:31;4.53;;;3.08;;
63218;SDS011;49320;52.512;13.448;2023-05-10T04:39:02;4.65;;;3.10;;
63218;SDS011;49320;52.512;13.448;2023-05-10T04:41:30;4.78;;;3.70;;
63218;SDS011;49320;52.512;13.448;2023-05-10T04:43:57;6.35;;;3.20;;
63218;SDS011;49320;52.512;13.448;2023-05-10T04:46:23;5.15;;;3.03;;
63218;SDS011;49320;52.512;13.448;2023-05-10T04:48:51;4.28;;;3.25;;
63218;SDS011;49320;52.512;13.448;2023-05-10T04:51:17;4.65;;;2.85;;
63218;SDS011;49320;52.512;13.448;2023-05-10T04:53:44;3.63;;;3.15;;
63218;SDS011;49320;52.512;13.448;2023-05-10T04:56:27;4.60;;;2.85;;
63218;SDS011;49320;52.512;13.448;2023-05-10T04:58:54;6.22;;;3.45;;
63218;SDS011;49320;52.512;13.448;2023-05-10T05:01:20;4.15;;;3.20;;
63218;SDS011;49320;52.512;13.448;2023-05-10T05:03:49;5.18;;;2.72;;
63218;SDS011;49320;52.512;13.448;2023-05-10T05:06:16;5.72;;;3.00;;
63218;SDS011;49320;52.512;13.448;2023-05-10T05:08:43;6.57;;;2.95;;
63218;SDS011;49320;52.512;13.448;2023-05-10T05:11:10;4.80;;;2.67;;
63218;SDS011;49320;52.512;13.448;2023-05-10T05:13:37;3.90;;;3.28;;
63218;SDS011;49320;52.512;13.448;2023-05-10T05:16:04;5.35;;;3.20;;
63218;SDS011;49320;52.512;13.448;2023-05-10T05:18:31;4.60;;;2.67;;
63218;SDS011;49320;52.512;13.448;2023-05-10T05:20:58;5.88;;;3.30;;
63218;SDS011;49320;52.512;13.448;2023-05-10T05:23:25;3.92;;;3.05;;
63218;SDS011;49320;52.512;13.448;2023-05-10T05:25:52;4.40;;;2.88;;
63218;SDS011;49320;52.512;13.448;2023-05-10T05:28:19;3.58;;;2.97;;
63218;SDS011;49320;52.512;13.448;2023-05-10T05:30:47;6.72;;;3.42;;
63218;SDS011;49320;52.512;13.448;2023-05-10T05:33:14;4.32;;;3.05;;
63218;SDS011;49320;52.512;13.448;2023-05-10T05:35:44;3.88;;;2.90;;
63218;SDS011;49320;52.512;13.448;2023-05-10T05:38:16;4.53;;;3.20;;
63218;SDS011;49320;52.512;13.448;2023-05-10T05:40:44;3.78;;;2.55;;
63218;SDS011;49320;52.512;13.448;2023-05-10T05:43:11;3.50;;;2.65;;
63218;SDS011;49320;52.512;13.448;2023-05-10T05:45:38;4.43;;;2.95;;
63218;SDS011;49320;52.512;13.448;2023-05-10T05:48:05;4.20;;;2.97;;
63218;SDS011;49320;52.512;13.448;2023-05-10T05:50:32;4.50;;;2.78;;
63218;SDS011;49320;52.512;13.448;2023-05-10T05:52:58;6.43;;;3.10;;
63218;SDS011;49320;52.512;13.448;2023-05-10T05:55:25;4.40;;;2.42;;
63218;SDS011;49320;52.512;13.448;2023-05-10T05:57:52;4.03;;;2.60;;
63218;SDS011;49320;52.512;13.448;2023-05-10T06:00:19;4.72;;;2.80;;
63218;SDS011;49320;52.512;13.448;2023-05-10T06:02:48;3.63;;;2.80;;
63218;SDS011;49320;52.512;13.448;2023-05-10T06:05:15;4.90;;;2.50;;
63218;SDS011;49320;52.512;13.448;2023-05-10T06:07:42;3.60;;;2.50;;
63218;SDS011;49320;52.512;13.448;2023-05-10T06:10:09;3.28;;;2.47;;
63218;SDS011;49320;52.512;13.448;2023-05-10T06:12:36;4.55;;;2.50;;
63218;SDS011;49320;52.512;13.448;2023-05-10T06:15:03;4.45;;;2.40;;
63218;SDS011;49320;52.512;13.448;2023-05-10T06:17:31;3.50;;;2.72;;
63218;SDS011;49320;52.512;13.448;2023-05-10T06:19:57;3.97;;;2.40;;
63218;SDS011;49320;52.512;13.448;2023-05-10T06:22:24;6.45;;;2.88;;
63218;SDS011;49320;52.512;13.448;2023-05-10T06:24:51;2.67;;;2.30;;
63218;SDS011;49320;52.512;13.448;2023-05-10T06:27:18;5.07;;;2.28;;
63218;SDS011;49320;52.512;13.448;2023-05-10T06:29:44;2.50;;;2.17;;
63218;SDS011;49320;52.512;13.448;2023-05-10T06:32:12;3.83;;;2.28;;
63218;SDS011;49320;52.512;13.448;2023-05-10T06:34:38;5.32;;;2.38;;
63218;SDS011;49320;52.512;13.448;2023-05-10T06:37:05;3.25;;;2.15;;
63218;SDS011;49320;52.512;13.448;2023-05-10T06:39:32;4.22;;;2.70;;
63218;SDS011;49320;52.512;13.448;2023-05-10T06:41:59;2.72;;;1.80;;
63218;SDS011;49320;52.512;13.448;2023-05-10T06:44:25;4.63;;;2.40;;
63218;SDS011;49320;52.512;13.448;2023-05-10T06:46:52;3.72;;;2.20;;
63218;SDS011;49320;52.512;13.448;2023-05-10T06:49:21;4.95;;;2.17;;
63218;SDS011;49320;52.512;13.448;2023-05-10T06:51:48;2.78;;;2.05;;
63218;SDS011;49320;52.512;13.448;2023-05-10T06:54:15;2.85;;;2.13;;
63218;SDS011;49320;52.512;13.448;2023-05-10T06:56:42;4.57;;;2.20;;
63218;SDS011;49320;52.512;13.448;2023-05-10T06:59:09;2.80;;;2.28;;
63218;SDS011;49320;52.512;13.448;2023-05-10T07:01:36;3.90;;;2.22;;
63218;SDS011;49320;52.512;13.448;2023-05-10T07:04:03;3.25;;;2.28;;
63218;SDS011;49320;52.512;13.448;2023-05-10T07:06:30;4.00;;;2.15;;
63218;SDS011;49320;52.512;13.448;2023-05-10T07:09:00;4.22;;;2.45;;
63218;SDS011;49320;52.512;13.448;2023-05-10T07:11:27;4.70;;;2.58;;
63218;SDS011;49320;52.512;13.448;2023-05-10T07:13:53;3.03;;;2.20;;
63218;SDS011;49320;52.512;13.448;2023-05-10T07:16:20;4.15;;;2.35;;
63218;SDS011;49320;52.512;13.448;2023-05-10T07:18:48;4.18;;;2.35;;
63218;SDS011;49320;52.512;13.448;2023-05-10T07:21:16;3.67;;;1.92;;
63218;SDS011;49320;52.512;13.448;2023-05-10T07:23:43;3.35;;;2.20;;
63218;SDS011;49320;52.512;13.448;2023-05-10T07:26:10;2.78;;;2.05;;
63218;SDS011;49320;52.512;13.448;2023-05-10T07:28:37;14.57;;;4.35;;
63218;SDS011;49320;52.512;13.448;2023-05-10T07:31:05;5.30;;;2.80;;
63218;SDS011;49320;52.512;13.448;2023-05-10T07:33:31;3.03;;;2.20;;
63218;SDS011;49320;52.512;13.448;2023-05-10T07:35:58;4.45;;;2.10;;
63218;SDS011;49320;52.512;13.448;2023-05-10T07:38:25;4.18;;;2.30;;
63218;SDS011;49320;52.512;13.448;2023-05-10T07:40:52;2.20;;;2.00;;
63218;SDS011;49320;52.512;13.448;2023-05-10T07:43:19;3.58;;;2.30;;
63218;SDS011;49320;52.512;13.448;2023-05-10T07:45:46;3.72;;;2.38;;
63218;SDS011;49320;52.512;13.448;2023-05-10T07:48:13;3.67;;;2.28;;
63218;SDS011;49320;52.512;13.448;2023-05-10T07:50:39;3.22;;;2.05;;
63218;SDS011;49320;52.512;13.448;2023-05-10T07:53:06;5.25;;;2.70;;
63218;SDS011;49320;52.512;13.448;2023-05-10T07:55:33;2.50;;;1.65;;
63218;SDS011;49320;52.512;13.448;2023-05-10T07:58:00;2.60;;;2.05;;
63218;SDS011;49320;52.512;13.448;2023-05-10T08:00:27;3.30;;;2.20;;
63218;SDS011;49320;52.512;13.448;2023-05-10T08:02:54;6.20;;;2.20;;
63218;SDS011;49320;52.512;13.448;2023-05-10T08:05:21;2.92;;;2.13;;
63218;SDS011;49320;52.512;13.448;2023-05-10T08:07:48;4.45;;;2.42;;
63218;SDS011;49320;52.512;13.448;2023-05-10T08:10:15;4.88;;;1.92;;
63218;SDS011;49320;52.512;13.448;2023-05-10T08:12:42;4.85;;;2.30;;
63218;SDS011;49320;52.512;13.448;2023-05-10T08:15:09;2.58;;;1.98;;
63218;SDS011;49320;52.512;13.448;2023-05-10T08:17:36;3.10;;;2.03;;
63218;SDS011;49320;52.512;13.448;2023-05-10T08:20:03;3.22;;;2.03;;
63218;SDS011;49320;52.512;13.448;2023-05-10T08:22:31;3.00;;;2.05;;
63218;SDS011;49320;52.512;13.448;2023-05-10T08:24:57;2.90;;;1.75;;
63218;SDS011;49320;52.512;13.448;2023-05-10T08:27:24;3.45;;;2.15;;
63218;SDS011;49320;52.512;13.448;2023-05-10T08:29:51;3.13;;;2.33;;
63218;SDS011;49320;52.512;13.448;2023-05-10T08:32:18;2.70;;;2.00;;
63218;SDS011;49320;52.512;13.448;2023-05-10T08:34:45;3.10;;;2.10;;
63218;SDS011;49320;52.512;13.448;2023-05-10T08:37:11;3.90;;;2.40;;
63218;SDS011;49320;52.512;13.448;2023-05-10T08:39:39;3.35;;;2.28;;
63218;SDS011;49320;52.512;13.448;2023-05-10T08:42:06;3.88;;;2.20;;
63218;SDS011;49320;52.512;13.448;2023-05-10T08:44:35;3.92;;;1.90;;
63218;SDS011;49320;52.512;13.448;2023-05-10T08:47:06;2.83;;;2.10;;
63218;SDS011;49320;52.512;13.448;2023-05-10T08:49:33;4.32;;;2.38;;
63218;SDS011;49320;52.512;13.448;2023-05-10T08:52:03;3.05;;;2.03;;
63218;SDS011;49320;52.512;13.448;2023-05-10T08:54:32;2.20;;;2.00;;
63218;SDS011;49320;52.512;13.448;2023-05-10T08:56:59;4.38;;;1.80;;
63218;SDS011;49320;52.512;13.448;2023-05-10T08:59:26;4.22;;;2.55;;
63218;SDS011;49320;52.512;13.448;2023-05-10T09:01:53;6.03;;;2.40;;
63218;SDS011;49320;52.512;13.448;2023-05-10T09:04:25;4.00;;;2.13;;
63218;SDS011;49320;52.512;13.448;2023-05-10T09:06:52;2.47;;;1.85;;
63218;SDS011;49320;52.512;13.448;2023-05-10T09:09:19;3.65;;;2.17;;
63218;SDS011;49320;52.512;13.448;2023-05-10T09:11:47;3.92;;;1.92;;
63218;SDS011;49320;52.512;13.448;2023-05-10T09:14:15;2.47;;;2.13;;
63218;SDS011;49320;52.512;13.448;2023-05-10T09:16:43;3.45;;;2.13;;
63218;SDS011;49320;52.512;13.448;2023-05-10T09:19:10;4.30;;;2.17;;
63218;SDS011;49320;52.512;13.448;2023-05-10T09:21:37;2.20;;;1.90;;
63218;SDS011;49320;52.512;13.448;2023-05-10T09:24:05;3.80;;;2.20;;
63218;SDS011;49320;52.512;13.448;2023-05-10T09:26:34;2.20;;;1.90;;
63218;SDS011;49320;52.512;13.448;2023-05-10T09:29:02;7.28;;;2.20;;
63218;SDS011;49320;52.512;13.448;2023-05-10T09:31:45;2.50;;;2.10;;
63218;SDS011;49320;52.512;13.448;2023-05-10T09:34:18;6.40;;;2.05;;
63218;SDS011;49320;52.512;13.448;2023-05-10T09:36:51;2.17;;;1.65;;
63218;SDS011;49320;52.512;13.448;2023-05-10T09:39:29;3.13;;;2.28;;
63218;SDS011;49320;52.512;13.448;2023-05-10T09:42:02;3.75;;;2.50;;
63218;SDS011;49320;52.512;13.448;2023-05-10T09:44:34;2.53;;;2.08;;
63218;SDS011;49320;52.512;13.448;2023-05-10T09:47:03;4.57;;;2.28;;
63218;SDS011;49320;52.512;13.448;2023-05-10T09:49:30;2.40;;;1.98;;
63218;SDS011;49320;52.512;13.448;2023-05-10T09:51:59;3.08;;;2.08;;
63218;SDS011;49320;52.512;13.448;2023-05-10T09:54:27;3.47;;;2.08;;
63218;SDS011;49320;52.512;13.448;2023-05-10T09:56:54;4.30;;;2.00;;
63218;SDS011;49320;52.512;13.448;2023-05-10T09:59:21;2.30;;;1.88;;
63218;SDS011;49320;52.512;13.448;2023-05-10T10:01:52;2.58;;;1.80;;
63218;SDS011;49320;52.512;13.448;2023-05-10T10:04:22;3.55;;;2.30;;
63218;SDS011;49320;52.512;13.448;2023-05-10T10:06:59;2.58;;;2.25;;
63218;SDS011;49320;52.512;13.448;2023-05-10T10:09:30;3.70;;;2.10;;
63218;SDS011;49320;52.512;13.448;2023-05-10T10:11:59;5.80;;;2.00;;
63218;SDS011;49320;52.512;13.448;2023-05-10T10:14:28;2.00;;;1.80;;
63218;SDS011;49320;52.512;13.448;2023-05-10T10:16:56;3.28;;;1.90;;
63218;SDS011;49320;52.512;13.448;2023-05-10T10:19:34;2.97;;;1.73;;
63218;SDS011;49320;52.512;13.448;2023-05-10T10:22:02;4.40;;;2.22;;
63218;SDS011;49320;52.512;13.448;2023-05-10T10:24:29;3.92;;;2.13;;
63218;SDS011;49320;52.512;13.448;2023-05-10T10:26:57;3.65;;;2.25;;
63218;SDS011;49320;52.512;13.448;2023-05-10T10:29:47;3.55;;;2.80;;
63218;SDS011;49320;52.512;13.448;2023-05-10T10:35:21;3.30;;;1.90;;
63218;SDS011;49320;52.512;13.448;2023-05-10T10:37:50;2.63;;;1.88;;
63218;SDS011;49320;52.512;13.448;2023-05-10T10:40:24;3.83;;;2.00;;
63218;SDS011;49320;52.512;13.448;2023-05-10T10:42:52;2.20;;;1.90;;
63218;SDS011;49320;52.512;13.448;2023-05-10T10:45:20;5.18;;;2.10;;
63218;SDS011;49320;52.512;13.448;2023-05-10T10:47:48;2.92;;;2.30;;
63218;SDS011;49320;52.512;13.448;2023-05-10T10:50:16;3.67;;;1.90;;
63218;SDS011;49320;52.512;13.448;2023-05-10T10:52:43;2.58;;;1.95;;
63218;SDS011;49320;52.512;13.448;2023-05-10T10:55:12;2.20;;;2.00;;
63218;SDS011;49320;52.512;13.448;2023-05-10T10:57:52;3.38;;;1.95;;
63218;SDS011;49320;52.512;13.448;2023-05-10T11:00:30;2.30;;;2.10;;
63218;SDS011;49320;52.512;13.448;2023-05-10T11:03:04;3.85;;;2.05;;
63218;SDS011;49320;52.512;13.448;2023-05-10T11:08:13;2.78;;;2.10;;
63218;SDS011;49320;52.512;13.448;2023-05-10T11:13:27;3.33;;;2.00;;
63218;SDS011;49320;52.512;13.448;2023-05-10T11:18:53;2.30;;;2.00;;
63218;SDS011;49320;52.512;13.448;2023-05-10T11:21:30;3.22;;;1.75;;
63218;SDS011;49320;52.512;13.448;2023-05-10T11:23:59;2.03;;;1.60;;
63218;SDS011;49320;52.512;13.448;2023-05-10T11:26:32;2.65;;;1.70;;
63218;SDS011;49320;52.512;13.448;2023-05-10T11:29:01;3.15;;;2.15;;
63218;SDS011;49320;52.512;13.448;2023-05-10T11:31:30;3.08;;;2.10;;
63218;SDS011;49320;52.512;13.448;2023-05-10T11:33:57;3.08;;;2.10;;
63218;SDS011;49320;52.512;13.448;2023-05-10T11:36:28;3.40;;;2.08;;
63218;SDS011;49320;52.512;13.448;2023-05-10T11:38:59;2.30;;;1.85;;
63218;SDS011;49320;52.512;13.448;2023-05-10T11:41:27;4.45;;;2.22;;
63218;SDS011;49320;52.512;13.448;2023-05-10T11:43:56;2.50;;;2.00;;
63218;SDS011;49320;52.512;13.448;2023-05-10T11:46:25;3.00;;;1.60;;
63218;SDS011;49320;52.512;13.448;2023-05-10T11:48:57;3.38;;;2.05;;
63218;SDS011;49320;52.512;13.448;2023-05-10T11:51:27;3.30;;;1.95;;
63218;SDS011;49320;52.512;13.448;2023-05-10T11:53:55;2.78;;;2.22;;
63218;SDS011;49320;52.512;13.448;2023-05-10T11:56:23;4.10;;;2.47;;
63218;SDS011;49320;52.512;13.448;2023-05-10T11:58:53;5.65;;;2.25;;
63218;SDS011;49320;52.512;13.448;2023-05-10T12:01:22;3.10;;;1.80;;
63218;SDS011;49320;52.512;13.448;2023-05-10T12:03:51;3.55;;;1.95;;
63218;SDS011;49320;52.512;13.448;2023-05-10T12:06:21;2.08;;;1.77;;
63218;SDS011;49320;52.512;13.448;2023-05-10T12:08:48;3.67;;;1.77;;
63218;SDS011;49320;52.512;13.448;2023-05-10T12:11:18;2.20;;;1.70;;
63218;SDS011;49320;52.512;13.448;2023-05-10T12:13:47;2.97;;;1.90;;
63218;SDS011;49320;52.512;13.448;2023-05-10T12:16:17;2.22;;;1.65;;
63218;SDS011;49320;52.512;13.448;2023-05-10T12:18:53;3.28;;;1.88;;
63218;SDS011;49320;52.512;13.448;2023-05-10T12:21:23;3.45;;;1.83;;
63218;SDS011;49320;52.512;13.448;2023-05-10T12:23:52;1.95;;;1.60;;
63218;SDS011;49320;52.512;13.448;2023-05-10T12:26:24;3.77;;;1.77;;
63218;SDS011;49320;52.512;13.448;2023-05-10T12:28:53;3.22;;;1.63;;
63218;SDS011;49320;52.512;13.448;2023-05-10T12:31:20;2.50;;;1.80;;
63218;SDS011;49320;52.512;13.448;2023-05-10T12:33:47;2.72;;;1.88;;
63218;SDS011;49320;52.512;13.448;2023-05-10T12:36:15;3.42;;;1.50;;
63218;SDS011;49320;52.512;13.448;2023-05-10T12:38:43;2.95;;;1.63;;
63218;SDS011;49320;52.512;13.448;2023-05-10T12:41:15;3.30;;;1.48;;
63218;SDS011;49320;52.512;13.448;2023-05-10T12:43:44;2.30;;;1.77;;
63218;SDS011;49320;52.512;13.448;2023-05-10T12:46:17;3.08;;;1.55;;
63218;SDS011;49320;52.512;13.448;2023-05-10T12:48:45;3.63;;;1.60;;
63218;SDS011;49320;52.512;13.448;2023-05-10T12:51:22;3.65;;;1.80;;
63218;SDS011;49320;52.512;13.448;2023-05-10T12:53:49;2.03;;;1.83;;
63218;SDS011;49320;52.512;13.448;2023-05-10T12:56:16;3.05;;;1.95;;
63218;SDS011;49320;52.512;13.448;2023-05-10T12:58:42;1.98;;;1.60;;
63218;SDS011;49320;52.512;13.448;2023-05-10T13:01:14;2.72;;;1.85;;
63218;SDS011;49320;52.512;13.448;2023-05-10T13:03:41;3.53;;;2.13;;
63218;SDS011;49320;52.512;13.448;2023-05-10T13:06:09;2.72;;;2.30;;
63218;SDS011;49320;52.512;13.448;2023-05-10T13:08:37;4.07;;;2.10;;
63218;SDS011;49320;52.512;13.448;2023-05-10T13:11:04;2.95;;;2.00;;
63218;SDS011;49320;52.512;13.448;2023-05-10T13:13:31;1.90;;;1.67;;
63218;SDS011;49320;52.512;13.448;2023-05-10T13:15:59;3.75;;;2.30;;
63218;SDS011;49320;52.512;13.448;2023-05-10T13:18:25;2.28;;;1.70;;
63218;SDS011;49320;52.512;13.448;2023-05-10T13:20:53;2.88;;;1.60;;
63218;SDS011;49320;52.512;13.448;2023-05-10T13:23:20;2.17;;;1.67;;
63218;SDS011;49320;52.512;13.448;2023-05-10T13:25:47;4.40;;;1.73;;
63218;SDS011;49320;52.512;13.448;2023-05-10T13:28:13;2.90;;;2.03;;
63218;SDS011;49320;52.512;13.448;2023-05-10T13:30:40;2.25;;;1.83;;
63218;SDS011;49320;52.512;13.448;2023-05-10T13:33:07;1.98;;;1.80;;
63218;SDS011;49320;52.512;13.448;2023-05-10T13:35:34;2.45;;;2.13;;
63218;SDS011;49320;52.512;13.448;2023-05-10T13:38:01;2.72;;;2.13;;
63218;SDS011;49320;52.512;13.448;2023-05-10T13:40:28;3.25;;;1.95;;
63218;SDS011;49320;52.512;13.448;2023-05-10T13:42:54;2.10;;;1.77;;
63218;SDS011;49320;52.512;13.448;2023-05-10T13:45:21;2.05;;;1.77;;
63218;SDS011;49320;52.512;13.448;2023-05-10T13:47:48;1.88;;;1.48;;
63218;SDS011;49320;52.512;13.448;2023-05-10T13:50:16;3.60;;;1.88;;
63218;SDS011;49320;52.512;13.448;2023-05-10T13:52:43;4.22;;;2.30;;
63218;SDS011;49320;52.512;13.448;2023-05-10T13:55:10;2.20;;;1.75;;
63218;SDS011;49320;52.512;13.448;2023-05-10T13:57:38;2.30;;;1.90;;
63218;SDS011;49320;52.512;13.448;2023-05-10T14:00:05;4.15;;;1.88;;
63218;SDS011;49320;52.512;13.448;2023-05-10T14:02:34;2.70;;;1.67;;
63218;SDS011;49320;52.512;13.448;2023-05-10T14:05:01;2.75;;;1.77;;
63218;SDS011;49320;52.512;13.448;2023-05-10T14:07:29;4.40;;;1.90;;
63218;SDS011;49320;52.512;13.448;2023-05-10T14:09:55;6.10;;;1.60;;
63218;SDS011;49320;52.512;13.448;2023-05-10T14:12:22;1.88;;;1.70;;
63218;SDS011;49320;52.512;13.448;2023-05-10T14:14:49;1.80;;;1.60;;
63218;SDS011;49320;52.512;13.448;2023-05-10T14:17:16;4.18;;;2.13;;
63218;SDS011;49320;52.512;13.448;2023-05-10T14:19:42;2.53;;;1.70;;
63218;SDS011;49320;52.512;13.448;2023-05-10T14:22:09;1.80;;;1.38;;
63218;SDS011;49320;52.512;13.448;2023-05-10T14:24:37;3.70;;;2.25;;
63218;SDS011;49320;52.512;13.448;2023-05-10T14:27:04;2.38;;;1.75;;
63218;SDS011;49320;52.512;13.448;2023-05-10T14:29:32;5.88;;;1.98;;
63218;SDS011;49320;52.512;13.448;2023-05-10T14:31:59;2.83;;;1.80;;
63218;SDS011;49320;52.512;13.448;2023-05-10T14:34:25;4.50;;;1.50;;
63218;SDS011;49320;52.512;13.448;2023-05-10T14:36:52;3.90;;;1.60;;
63218;SDS011;49320;52.512;13.448;2023-05-10T14:39:19;2.80;;;1.77;;
63218;SDS011;49320;52.512;13.448;2023-05-10T14:41:46;1.95;;;1.58;;
63218;SDS011;49320;52.512;13.448;2023-05-10T14:44:13;1.75;;;1.50;;
63218;SDS011;49320;52.512;13.448;2023-05-10T14:46:41;2.95;;;1.50;;
63218;SDS011;49320;52.512;13.448;2023-05-10T14:49:08;2.65;;;1.67;;
63218;SDS011;49320;52.512;13.448;2023-05-10T14:51:35;3.58;;;1.55;;
63218;SDS011;49320;52.512;13.448;2023-05-10T14:54:03;2.13;;;1.75;;
63218;SDS011;49320;52.512;13.448;2023-05-10T14:56:29;1.92;;;1.52;;
63218;SDS011;49320;52.512;13.448;2023-05-10T14:58:56;2.08;;;1.60;;
63218;SDS011;49320;52.512;13.448;2023-05-10T15:01:24;2.58;;;1.40;;
63218;SDS011;49320;52.512;13.448;2023-05-10T15:03:51;1.70;;;1.45;;
63218;SDS011;49320;52.512;13.448;2023-05-10T15:06:22;3.35;;;1.85;;
63218;SDS011;49320;52.512;13.448;2023-05-10T15:08:56;3.55;;;1.75;;